createdAt,value
2022-12-23T00:03:16.075Z,100.00
2022-12-23T00:08:18.223Z,100.00
2022-12-23T00:13:38.958Z,100.00
2022-12-23T00:18:41.940Z,100.00
2022-12-23T00:23:48.114Z,100.00
2022-12-23T00:28:50.462Z,100.00
2022-12-23T00:33:53.590Z,100.00
2022-12-23T00:39:19.542Z,100.00
2022-12-23T00:44:28.355Z,100.00
2022-12-23T00:49:41.971Z,100.00
2022-12-23T00:54:48.501Z,100.00
2022-12-23T00:59:50.253Z,100.00
2022-12-23T01:05:10.520Z,100.00
2022-12-23T01:10:14.581Z,100.00
2022-12-23T01:15:17.441Z,100.00
2022-12-23T01:20:22.602Z,100.00
2022-12-23T01:25:26.550Z,100.00
2022-12-23T01:30:31.229Z,100.00
2022-12-23T01:35:34.579Z,100.00
2022-12-23T01:40:39.614Z,100.00
2022-12-23T01:45:50.347Z,100.00
2022-12-23T01:50:56.360Z,100.00
2022-12-23T01:56:00.992Z,100.00
2022-12-23T02:01:21.213Z,100.00
2022-12-23T02:07:07.491Z,100.00
2022-12-23T02:12:37.156Z,100.00
2022-12-23T02:18:01.627Z,100.00
2022-12-23T02:23:06.553Z,100.00
2022-12-23T02:28:45.457Z,100.00
2022-12-23T02:33:55.383Z,100.00
2022-12-23T02:39:17.203Z,100.00
2022-12-23T02:44:40.650Z,100.00
2022-12-23T02:49:48.999Z,100.00
2022-12-23T02:54:59.091Z,100.00
2022-12-23T03:00:01.711Z,100.00
2022-12-23T03:05:23.036Z,100.00
2022-12-23T03:10:45.507Z,100.00
2022-12-23T03:16:25.937Z,100.00
2022-12-23T03:21:41.120Z,100.00
2022-12-23T03:26:45.504Z,100.00
2022-12-23T03:31:47.626Z,100.00
2022-12-23T03:36:52.329Z,100.00
2022-12-23T03:42:02.629Z,100.00
2022-12-23T03:47:11.500Z,100.00
2022-12-23T03:52:21.923Z,100.00
2022-12-23T03:57:28.739Z,100.00
2022-12-23T04:02:51.102Z,100.00
2022-12-23T04:08:05.180Z,100.00
2022-12-23T04:13:10.804Z,100.00
2022-12-23T04:18:12.599Z,100.00
2022-12-23T04:23:19.062Z,100.00
2022-12-23T04:28:20.818Z,100.00
2022-12-23T04:33:24.884Z,100.00
2022-12-23T04:38:29.215Z,100.00
2022-12-23T04:43:33.168Z,100.00
2022-12-23T04:48:35.770Z,100.00
2022-12-23T04:53:39.834Z,100.00
2022-12-23T04:58:41.567Z,100.00
2022-12-23T05:03:43.272Z,100.00
2022-12-23T05:08:47.966Z,100.00
2022-12-23T05:13:49.685Z,100.00
2022-12-23T05:18:58.111Z,100.00
2022-12-23T05:23:59.848Z,100.00
2022-12-23T05:29:02.563Z,100.00
2022-12-23T05:34:06.796Z,100.00
2022-12-23T05:39:14.328Z,100.00
2022-12-23T05:44:18.550Z,100.00
2022-12-23T05:49:23.222Z,100.00
2022-12-23T05:54:25.619Z,100.00
2022-12-23T05:59:31.665Z,100.00
2022-12-23T06:04:33.605Z,100.00
2022-12-23T06:09:40.164Z,100.00
2022-12-23T06:14:44.204Z,100.00
2022-12-23T06:19:48.971Z,100.00
2022-12-23T06:24:53.227Z,100.00
2022-12-23T06:29:55.060Z,100.00
2022-12-23T06:34:57.708Z,100.00
2022-12-23T06:40:04.221Z,100.00
2022-12-23T06:45:08.698Z,100.00
2022-12-23T06:50:13.463Z,100.00
2022-12-23T06:55:18.307Z,100.00
2022-12-23T07:00:20.236Z,100.00
2022-12-23T07:05:22.072Z,100.00
2022-12-23T07:10:26.035Z,100.00
2022-12-23T07:15:30.549Z,100.00
2022-12-23T07:20:34.611Z,100.00
2022-12-23T07:25:39.326Z,100.00
2022-12-23T07:30:41.050Z,100.00
2022-12-23T07:35:45.452Z,100.00
2022-12-23T07:40:51.948Z,100.00
2022-12-23T07:46:08.604Z,100.00
2022-12-23T07:51:10.399Z,100.00
2022-12-23T07:56:14.448Z,100.00
2022-12-23T08:01:21.526Z,100.00
2022-12-23T08:06:25.449Z,100.00
2022-12-23T08:11:31.967Z,100.00
2022-12-23T08:16:39.591Z,100.00
2022-12-23T08:21:47.319Z,100.00
2022-12-23T08:26:51.316Z,100.00
2022-12-23T08:31:58.270Z,100.00
2022-12-23T08:37:04.523Z,100.00
2022-12-23T08:42:12.236Z,100.00
2022-12-23T08:47:19.205Z,100.00
2022-12-23T08:52:25.952Z,100.00
2022-12-23T08:57:29.072Z,100.00
2022-12-23T09:02:35.489Z,100.00
2022-12-23T09:07:40.433Z,100.00
2022-12-23T09:12:44.906Z,98.13
2022-12-23T09:17:49.229Z,96.97
2022-12-23T09:22:53.523Z,94.17
2022-12-23T09:27:59.774Z,93.30
2022-12-23T09:33:06.773Z,92.27
2022-12-23T09:38:08.908Z,91.72
2022-12-23T09:43:29.684Z,90.41
2022-12-23T09:48:58.818Z,89.52
2022-12-23T09:54:24.647Z,89.24
2022-12-23T09:59:50.462Z,89.32
2022-12-23T10:05:23.431Z,88.58
2022-12-23T10:10:34.452Z,88.49
2022-12-23T10:15:44.321Z,87.69
2022-12-23T10:20:54.153Z,87.67
2022-12-23T10:26:01.588Z,87.22
2022-12-23T10:31:30.874Z,86.61
2022-12-23T10:36:50.677Z,85.94
2022-12-23T10:42:05.860Z,86.16
2022-12-23T10:47:36.455Z,85.62
2022-12-23T10:52:41.394Z,85.03
2022-12-23T10:57:46.183Z,85.08
2022-12-23T11:03:38.172Z,84.39
2022-12-23T11:08:40.800Z,84.40
2022-12-23T11:13:46.579Z,84.47
2022-12-23T11:19:05.825Z,84.23
2022-12-23T11:24:19.269Z,83.01
2022-12-23T11:29:23.907Z,83.01
2022-12-23T11:34:26.700Z,82.92
2022-12-23T11:39:39.519Z,82.77
2022-12-23T11:44:44.310Z,82.70
2022-12-23T11:49:56.544Z,82.08
2022-12-23T11:55:04.319Z,81.81
2022-12-23T12:00:09.100Z,81.31
2022-12-23T12:05:26.026Z,81.81
2022-12-23T12:10:33.004Z,81.17
2022-12-23T12:15:48.587Z,80.65
2022-12-23T12:20:56.043Z,80.34
2022-12-23T12:26:08.099Z,80.21
2022-12-23T12:31:23.495Z,79.61
2022-12-23T12:36:55.345Z,80.00
2022-12-23T12:42:11.659Z,80.15
2022-12-23T12:52:42.158Z,79.63
2022-12-23T12:57:44.929Z,79.25
2022-12-23T13:03:04.814Z,79.69
2022-12-23T13:08:42.649Z,79.00
2022-12-23T13:14:02.925Z,79.28
2022-12-23T13:19:22.470Z,79.03
2022-12-23T13:25:04.564Z,78.49
2022-12-23T13:30:17.704Z,78.94
2022-12-23T13:35:46.946Z,78.47
2022-12-23T13:40:57.763Z,78.34
2022-12-23T13:46:05.074Z,77.54
2022-12-23T13:51:15.207Z,77.88
2022-12-23T13:56:35.345Z,78.21
2022-12-23T14:01:42.449Z,78.18
2022-12-23T14:06:44.939Z,77.76
2022-12-23T14:11:49.089Z,77.82
2022-12-23T14:17:16.341Z,77.77
2022-12-23T14:22:21.252Z,78.23
2022-12-23T14:27:41.970Z,77.60
2022-12-23T14:32:53.764Z,78.13
2022-12-23T14:38:16.849Z,77.73
2022-12-23T14:43:51.291Z,77.42
2022-12-23T14:49:22.470Z,78.05
2022-12-23T14:54:37.989Z,77.71
2022-12-23T14:59:51.452Z,77.35
2022-12-23T15:04:58.087Z,77.84
2022-12-23T15:10:26.169Z,77.06
2022-12-23T15:15:29.795Z,77.63
2022-12-23T15:20:35.234Z,76.86
2022-12-23T15:25:51.456Z,76.76
2022-12-23T15:30:56.731Z,77.26
2022-12-23T15:36:01.924Z,77.14
2022-12-23T15:41:16.134Z,77.04
2022-12-23T15:46:28.998Z,77.24
2022-12-23T15:52:05.852Z,77.42
2022-12-23T15:56:57.994Z,76.00
2022-12-23T16:02:49.579Z,76.39
2022-12-23T16:07:39.269Z,76.25
2022-12-23T16:12:41.808Z,75.53
2022-12-23T16:17:46.180Z,75.22
2022-12-23T16:22:51.145Z,75.79
2022-12-23T16:28:06.040Z,75.53
2022-12-23T16:33:28.023Z,76.12
2022-12-23T16:38:34.836Z,75.58
2022-12-23T16:43:38.558Z,75.76
2022-12-23T16:48:48.174Z,75.41
2022-12-23T16:53:55.301Z,75.84
2022-12-23T16:58:57.046Z,75.73
2022-12-23T17:04:04.564Z,76.09
2022-12-23T17:09:09.579Z,76.19
2022-12-23T17:14:21.653Z,76.64
2022-12-23T17:19:28.912Z,77.20
2022-12-23T17:24:31.452Z,76.52
2022-12-23T17:29:34.878Z,77.04
2022-12-23T17:34:40.055Z,76.61
2022-12-23T17:39:42.977Z,76.38
2022-12-23T17:44:47.445Z,76.65
2022-12-23T17:49:49.630Z,76.54
2022-12-23T17:54:51.582Z,76.77
2022-12-23T17:59:54.356Z,76.10
2022-12-23T18:04:56.270Z,76.55
2022-12-23T18:10:00.213Z,76.36
2022-12-23T18:15:02.978Z,75.89
2022-12-23T18:20:09.312Z,76.56
2022-12-23T18:25:22.808Z,76.77
2022-12-23T18:30:27.598Z,76.01
2022-12-23T18:35:35.368Z,76.71
2022-12-23T18:40:40.163Z,76.39
2022-12-23T18:45:50.699Z,77.31
2022-12-23T18:50:54.459Z,77.33
2022-12-23T18:55:56.194Z,77.65
2022-12-23T19:00:58.044Z,77.82
2022-12-23T19:06:06.492Z,78.56
2022-12-23T19:11:20.723Z,78.01
2022-12-23T19:16:22.755Z,78.20
2022-12-23T19:21:24.600Z,77.85
2022-12-23T19:26:31.020Z,78.11
2022-12-23T19:31:34.986Z,77.48
2022-12-23T19:36:39.848Z,77.35
2022-12-23T19:41:49.118Z,77.95
2022-12-23T19:46:53.208Z,77.16
2022-12-23T19:52:00.948Z,76.88
2022-12-23T19:57:07.198Z,77.01
2022-12-23T20:02:15.643Z,77.67
2022-12-23T20:07:17.560Z,76.80
2022-12-23T20:12:19.352Z,77.26
2022-12-23T20:17:21.050Z,76.77
2022-12-23T20:22:25.676Z,77.07
2022-12-23T20:27:28.273Z,76.73
2022-12-23T20:32:31.274Z,76.61
2022-12-23T20:37:33.624Z,76.97
2022-12-23T20:42:37.685Z,76.40
2022-12-23T20:47:42.177Z,76.78
2022-12-23T20:52:46.299Z,76.09
2022-12-23T20:57:48.159Z,76.85
2022-12-23T21:02:53.112Z,76.91
2022-12-23T21:07:54.968Z,76.06
2022-12-23T21:12:59.099Z,76.34
2022-12-23T21:18:01.060Z,76.96
2022-12-23T21:23:09.396Z,70.93
2022-12-23T21:28:16.181Z,83.78
2022-12-23T21:33:22.229Z,87.62
2022-12-23T21:38:32.279Z,91.70
2022-12-23T21:43:34.291Z,91.99
2022-12-23T21:48:36.784Z,93.51
2022-12-23T21:53:39.145Z,95.21
2022-12-23T21:58:41.617Z,96.21
2022-12-23T22:03:48.429Z,97.55
2022-12-23T22:08:54.635Z,98.17
2022-12-23T22:13:57.925Z,99.34
2022-12-23T22:19:04.988Z,100.00
2022-12-23T22:24:07.252Z,100.00
2022-12-23T22:29:10.801Z,100.00
2022-12-23T22:34:18.393Z,100.00
2022-12-23T22:39:21.958Z,100.00
2022-12-23T22:44:26.011Z,100.00
2022-12-23T22:49:28.125Z,100.00
2022-12-23T22:54:29.889Z,100.00
2022-12-23T22:59:34.572Z,100.00
2022-12-23T23:04:36.439Z,100.00
2022-12-23T23:09:38.172Z,100.00
2022-12-23T23:14:55.018Z,100.00
2022-12-23T23:19:58.835Z,100.00
2022-12-23T23:25:00.759Z,100.00
2022-12-23T23:30:07.547Z,100.00
2022-12-23T23:35:11.027Z,100.00
2022-12-23T23:40:13.186Z,100.00
2022-12-23T23:45:14.918Z,100.00
2022-12-23T23:50:20.127Z,100.00
2022-12-23T23:55:21.939Z,100.00
